createdAt,value
2018-07-06T00:01:11.465Z,101050.73
2018-07-06T00:04:32.989Z,101049.88
2018-07-06T00:07:54.579Z,101044.20
2018-07-06T00:11:16.151Z,101044.22
2018-07-06T00:14:37.420Z,101037.24
2018-07-06T00:17:59.049Z,101045.97
2018-07-06T00:21:20.792Z,101041.59
2018-07-06T00:24:42.383Z,101049.47
2018-07-06T00:28:03.949Z,101044.22
2018-07-06T00:31:25.537Z,101049.89
2018-07-06T00:34:46.833Z,101056.03
2018-07-06T00:38:08.201Z,101060.84
2018-07-06T00:41:29.572Z,101050.37
2018-07-06T00:44:45.000Z,101053.84
2018-07-06T00:48:06.438Z,101055.19
2018-07-06T00:51:27.950Z,101045.11
2018-07-06T00:54:49.259Z,101055.19
2018-07-06T00:58:10.811Z,101054.34
2018-07-06T01:01:32.279Z,101059.61
2018-07-06T01:04:53.599Z,101051.75
2018-07-06T01:08:14.916Z,101056.95
2018-07-06T01:11:36.381Z,101062.19
2018-07-06T01:14:57.846Z,101057.41
2018-07-06T01:18:19.465Z,101063.09
2018-07-06T01:21:41.004Z,101064.84
2018-07-06T01:25:02.393Z,101054.80
2018-07-06T01:28:23.901Z,101062.66
2018-07-06T01:31:45.376Z,101063.53
2018-07-06T01:35:06.613Z,101065.28
2018-07-06T01:38:28.457Z,101068.33
2018-07-06T01:41:49.775Z,101070.95
2018-07-06T01:45:11.004Z,101072.70
2018-07-06T01:48:32.487Z,101073.12
2018-07-06T01:51:54.381Z,101072.69
2018-07-06T01:55:15.829Z,101072.25
2018-07-06T01:58:37.240Z,101061.35
2018-07-06T02:01:58.864Z,101062.22
2018-07-06T02:05:20.256Z,101063.08
2018-07-06T02:08:41.733Z,101063.05
2018-07-06T02:12:03.167Z,101061.27
2018-07-06T02:15:24.548Z,101070.02
2018-07-06T02:18:46.077Z,101062.56
2018-07-06T02:22:07.418Z,101066.47
2018-07-06T02:25:28.931Z,101069.97
2018-07-06T02:28:50.422Z,101071.73
2018-07-06T02:32:11.801Z,101073.44
2018-07-06T02:35:33.250Z,101071.28
2018-07-06T02:38:54.697Z,101073.02
2018-07-06T02:42:16.209Z,101069.96
2018-07-06T02:45:37.493Z,101075.20
2018-07-06T02:48:58.855Z,101078.23
2018-07-06T02:52:20.410Z,101079.98
2018-07-06T02:55:43.681Z,101076.92
2018-07-06T02:59:05.203Z,101077.37
2018-07-06T03:02:26.748Z,101082.18
2018-07-06T03:05:48.120Z,101089.12
2018-07-06T03:09:09.477Z,101094.81
2018-07-06T03:12:31.044Z,101093.92
2018-07-06T03:15:52.565Z,101097.01
2018-07-06T03:19:14.115Z,101097.01
2018-07-06T03:22:35.608Z,101102.26
2018-07-06T03:25:57.014Z,101097.00
2018-07-06T03:29:18.323Z,101093.47
2018-07-06T03:32:39.736Z,101102.63
2018-07-06T03:36:01.154Z,101104.81
2018-07-06T03:39:22.464Z,101112.64
2018-07-06T03:42:43.923Z,101110.48
2018-07-06T03:46:05.237Z,101106.57
2018-07-06T03:49:26.846Z,101116.14
2018-07-06T03:52:48.292Z,101119.66
2018-07-06T03:56:09.778Z,101128.39
2018-07-06T03:59:31.076Z,101132.73
2018-07-06T04:02:52.418Z,101130.56
2018-07-06T04:06:13.881Z,101137.52
2018-07-06T04:09:35.318Z,101131.89
2018-07-06T04:12:56.957Z,101142.31
2018-07-06T04:16:18.542Z,101134.47
2018-07-06T04:19:40.079Z,101139.73
2018-07-06T04:23:01.549Z,101144.48
2018-07-06T04:26:22.950Z,101137.05
2018-07-06T04:29:44.382Z,101145.76
2018-07-06T04:33:05.808Z,101147.06
2018-07-06T04:36:27.215Z,101150.09
2018-07-06T04:39:48.545Z,101151.81
2018-07-06T04:43:09.981Z,101141.73
2018-07-06T04:46:31.367Z,101152.60
2018-07-06T04:49:52.691Z,101151.40
2018-07-06T04:53:14.332Z,101159.70
2018-07-06T04:56:36.018Z,101151.87
2018-07-06T04:59:57.401Z,101161.50
2018-07-06T05:03:18.876Z,101161.52
2018-07-06T05:06:40.534Z,101156.28
2018-07-06T05:10:02.192Z,101155.41
2018-07-06T05:13:23.582Z,101162.05
2018-07-06T05:16:45.075Z,101156.83
2018-07-06T05:20:06.269Z,101168.16
2018-07-06T05:23:27.545Z,101165.02
2018-07-06T05:26:48.716Z,101178.56
2018-07-06T05:30:10.014Z,101178.52
2018-07-06T05:33:31.421Z,101180.73
2018-07-06T05:36:52.958Z,101185.55
2018-07-06T05:40:14.487Z,101190.39
2018-07-06T05:43:35.975Z,101192.63
2018-07-06T05:46:57.717Z,101185.69
2018-07-06T05:50:19.130Z,101189.61
2018-07-06T05:53:40.584Z,101187.03
2018-07-06T05:57:01.938Z,101194.86
2018-07-06T06:00:23.312Z,101198.00
2018-07-06T06:03:44.712Z,101197.62
2018-07-06T06:07:06.075Z,101201.54
2018-07-06T06:10:10.372Z,101202.00
2018-07-06T06:13:14.712Z,101205.52
2018-07-06T06:16:19.237Z,101202.86
2018-07-06T06:19:23.544Z,101206.79
2018-07-06T06:22:27.946Z,101219.83
2018-07-06T06:25:32.194Z,101215.92
2018-07-06T06:28:36.809Z,101218.64
2018-07-06T06:31:41.141Z,101206.45
2018-07-06T06:34:45.473Z,101225.67
2018-07-06T06:37:49.917Z,101213.88
2018-07-06T06:40:54.177Z,101230.89
2018-07-06T06:43:58.566Z,101226.55
2018-07-06T06:47:02.879Z,101233.14
2018-07-06T06:50:07.287Z,101227.92
2018-07-06T06:53:11.713Z,101226.62
2018-07-06T06:56:16.020Z,101228.81
2018-07-06T06:59:20.382Z,101229.24
2018-07-06T07:02:24.817Z,101234.08
2018-07-06T07:05:29.311Z,101232.77
2018-07-06T07:08:33.755Z,101232.32
2018-07-06T07:11:38.103Z,101236.68
2018-07-06T07:14:42.196Z,101239.80
2018-07-06T07:17:46.803Z,101234.54
2018-07-06T07:20:51.089Z,101229.30
2018-07-06T07:23:55.764Z,101234.95
2018-07-06T07:27:01.037Z,101236.72
2018-07-06T07:30:05.376Z,101238.92
2018-07-06T07:33:09.695Z,101238.04
2018-07-06T07:36:14.073Z,101241.54
2018-07-06T07:39:18.374Z,101242.41
2018-07-06T07:42:22.741Z,101240.22
2018-07-06T07:45:27.118Z,101245.88
2018-07-06T07:48:31.543Z,101244.56
2018-07-06T07:52:07.173Z,101238.87
2018-07-06T07:55:11.504Z,101248.46
2018-07-06T07:58:15.899Z,101254.55
2018-07-06T08:01:20.360Z,101252.77
2018-07-06T08:04:24.692Z,101251.45
2018-07-06T08:07:29.214Z,101251.46
2018-07-06T08:10:33.605Z,101248.40
2018-07-06T08:13:37.969Z,101248.86
2018-07-06T08:16:42.364Z,101242.25
2018-07-06T08:19:46.754Z,101251.90
2018-07-06T08:22:51.183Z,101249.27
2018-07-06T08:25:55.527Z,101255.40
2018-07-06T08:28:59.858Z,101241.33
2018-07-06T08:32:04.261Z,101251.33
2018-07-06T08:35:25.785Z,101256.60
2018-07-06T08:38:30.112Z,101257.92
2018-07-06T08:41:34.633Z,101264.02
2018-07-06T08:44:38.939Z,101263.91
2018-07-06T08:47:43.860Z,101280.04
2018-07-06T08:50:48.209Z,101279.22
2018-07-06T08:53:52.616Z,101271.34
2018-07-06T08:56:56.949Z,101277.95
2018-07-06T09:00:01.524Z,101273.91
2018-07-06T09:03:06.627Z,101277.73
2018-07-06T09:06:11.029Z,101281.22
2018-07-06T09:09:15.552Z,101277.81
2018-07-06T09:12:20.004Z,101284.06
2018-07-06T09:15:24.421Z,101280.02
2018-07-06T09:18:28.828Z,101284.75
2018-07-06T09:21:33.093Z,101278.59
2018-07-06T09:24:37.461Z,101286.44
2018-07-06T09:27:41.872Z,101291.36
2018-07-06T09:30:46.199Z,101284.73
2018-07-06T09:33:50.553Z,101290.78
2018-07-06T09:36:55.001Z,101289.77
2018-07-06T09:39:59.368Z,101289.59
2018-07-06T09:43:03.666Z,101295.34
2018-07-06T09:46:07.977Z,101300.86
2018-07-06T09:49:12.326Z,101302.55
2018-07-06T09:52:16.612Z,101306.20
2018-07-06T09:55:20.964Z,101298.36
2018-07-06T09:58:25.483Z,101309.28
2018-07-06T10:01:29.784Z,101303.25
2018-07-06T10:04:34.181Z,101300.96
2018-07-06T10:07:38.510Z,101312.11
2018-07-06T10:10:42.830Z,101312.56
2018-07-06T10:13:47.203Z,101304.73
2018-07-06T10:16:51.521Z,101313.84
2018-07-06T10:19:55.885Z,101308.53
2018-07-06T10:23:00.225Z,101314.08
2018-07-06T10:26:04.545Z,101322.36
2018-07-06T10:29:35.780Z,101320.58
2018-07-06T10:32:40.133Z,101310.98
2018-07-06T10:35:44.596Z,101323.78
2018-07-06T10:38:48.915Z,101319.23
2018-07-06T10:41:53.312Z,101323.97
2018-07-06T10:44:57.727Z,101331.02
2018-07-06T10:48:01.996Z,101335.15
2018-07-06T10:51:06.886Z,101335.38
2018-07-06T10:54:11.272Z,101322.81
2018-07-06T10:57:15.613Z,101328.63
2018-07-06T11:00:20.041Z,101343.59
2018-07-06T11:03:24.343Z,101336.91
2018-07-06T11:06:28.665Z,101342.59
2018-07-06T11:09:33.035Z,101349.39
2018-07-06T11:12:37.545Z,101341.52
2018-07-06T11:15:42.043Z,101338.27
2018-07-06T11:18:46.455Z,101352.31
2018-07-06T11:21:50.774Z,101356.61
2018-07-06T11:24:55.198Z,101351.23
2018-07-06T11:27:59.596Z,101354.92
2018-07-06T11:31:03.905Z,101355.52
2018-07-06T11:34:09.302Z,101361.55
2018-07-06T11:37:13.724Z,101359.81
2018-07-06T11:40:18.117Z,101362.16
2018-07-06T11:43:22.400Z,101358.09
2018-07-06T11:46:26.764Z,101364.55
2018-07-06T11:49:31.098Z,101371.56
2018-07-06T11:52:35.483Z,101364.52
2018-07-06T11:55:39.843Z,101380.34
2018-07-06T11:58:44.135Z,101381.74
2018-07-06T12:01:48.456Z,101378.43
2018-07-06T12:04:52.873Z,101368.30
2018-07-06T12:07:57.201Z,101375.02
2018-07-06T12:11:02.094Z,101371.57
2018-07-06T12:14:06.469Z,101385.23
2018-07-06T12:17:10.883Z,101387.91
2018-07-06T12:20:15.225Z,101379.00
2018-07-06T12:23:19.697Z,101377.68
2018-07-06T12:26:24.037Z,101386.05
2018-07-06T12:29:28.323Z,101385.03
2018-07-06T12:32:32.648Z,101391.92
2018-07-06T12:35:37.116Z,101380.55
2018-07-06T12:38:41.408Z,101390.30
2018-07-06T12:41:45.728Z,101381.67
2018-07-06T12:44:50.180Z,101391.27
2018-07-06T12:47:54.470Z,101392.09
2018-07-06T12:50:58.857Z,101387.68
2018-07-06T12:54:03.205Z,101390.67
2018-07-06T12:57:07.531Z,101396.70
2018-07-06T13:00:11.831Z,101394.66
2018-07-06T13:03:16.135Z,101392.39
2018-07-06T13:06:20.485Z,101405.53
2018-07-06T13:09:24.923Z,101415.95
2018-07-06T13:12:29.225Z,101411.38
2018-07-06T13:15:33.546Z,101406.38
2018-07-06T13:18:37.851Z,101395.50
2018-07-06T13:21:42.165Z,101419.77
2018-07-06T13:24:46.436Z,101412.80
2018-07-06T13:27:50.820Z,101419.41
2018-07-06T13:30:55.147Z,101415.44
2018-07-06T13:33:59.511Z,101422.09
2018-07-06T13:37:03.900Z,101411.89
2018-07-06T13:40:08.437Z,101427.05
2018-07-06T13:43:12.727Z,101429.59
2018-07-06T13:46:17.045Z,101419.22
2018-07-06T13:49:21.408Z,101425.77
2018-07-06T13:52:25.788Z,101425.18
2018-07-06T13:55:30.092Z,101424.08
2018-07-06T13:58:34.407Z,101432.97
2018-07-06T14:01:38.548Z,101437.88
2018-07-06T14:04:42.820Z,101436.98
2018-07-06T14:07:47.176Z,101444.66
2018-07-06T14:10:51.469Z,101452.70
2018-07-06T14:13:56.037Z,101450.93
2018-07-06T14:17:00.721Z,101448.58
2018-07-06T14:20:05.024Z,101456.83
2018-07-06T14:23:10.443Z,101464.75
2018-07-06T14:26:14.965Z,101469.39
2018-07-06T14:29:19.276Z,101456.48
2018-07-06T14:32:25.279Z,101465.85
2018-07-06T14:35:29.632Z,101469.98
2018-07-06T14:38:34.584Z,101471.83
2018-07-06T14:41:39.875Z,101474.98
2018-07-06T14:44:45.616Z,101466.66
2018-07-06T14:47:50.687Z,101485.85
2018-07-06T14:50:55.971Z,101466.63
2018-07-06T14:54:01.271Z,101472.47
2018-07-06T14:57:06.511Z,101477.83
2018-07-06T15:00:11.003Z,101491.95
2018-07-06T15:03:15.330Z,101494.21
2018-07-06T15:06:19.646Z,101490.51
2018-07-06T15:09:23.973Z,101488.40
2018-07-06T15:12:28.369Z,101481.30
2018-07-06T15:15:33.507Z,101508.02
2018-07-06T15:18:37.897Z,101498.27
2018-07-06T15:21:42.192Z,101506.84
2018-07-06T15:24:46.555Z,101517.63
2018-07-06T15:27:50.887Z,101515.79
2018-07-06T15:30:55.380Z,101517.17
2018-07-06T15:33:59.810Z,101515.73
2018-07-06T15:37:04.226Z,101515.66
2018-07-06T15:40:08.553Z,101519.38
2018-07-06T15:43:13.204Z,101525.88
2018-07-06T15:46:17.667Z,101518.71
2018-07-06T15:49:22.021Z,101526.42
2018-07-06T15:52:26.339Z,101524.87
2018-07-06T15:55:31.534Z,101530.49
2018-07-06T15:58:35.691Z,101531.56
2018-07-06T16:01:39.973Z,101529.02
2018-07-06T16:04:44.285Z,101529.49
2018-07-06T16:07:48.615Z,101518.47
2018-07-06T16:10:53.110Z,101526.42
2018-07-06T16:13:57.442Z,101526.50
2018-07-06T16:17:01.773Z,101524.19
2018-07-06T16:20:06.211Z,101533.43
2018-07-06T16:23:10.545Z,101526.41
2018-07-06T16:26:14.863Z,101525.84
2018-07-06T16:29:19.199Z,101534.98
2018-07-06T16:32:23.643Z,101534.84
2018-07-06T16:35:28.023Z,101534.48
2018-07-06T16:38:32.365Z,101540.87
2018-07-06T16:41:36.751Z,101541.45
2018-07-06T16:44:41.057Z,101544.86
2018-07-06T16:47:45.513Z,101536.53
2018-07-06T16:50:49.795Z,101543.34
2018-07-06T16:53:54.185Z,101542.19
2018-07-06T16:56:58.444Z,101544.86
2018-07-06T17:00:02.777Z,101548.41
2018-07-06T17:03:07.084Z,101541.25
2018-07-06T17:06:11.348Z,101542.27
2018-07-06T17:09:15.760Z,101541.94
2018-07-06T17:12:20.091Z,101542.77
2018-07-06T17:15:24.402Z,101541.52
2018-07-06T17:18:28.822Z,101544.45
2018-07-06T17:21:33.096Z,101541.36
2018-07-06T17:24:37.443Z,101536.51
2018-07-06T17:27:42.109Z,101540.09
2018-07-06T17:30:46.518Z,101533.61
2018-07-06T17:33:50.898Z,101537.11
2018-07-06T17:36:55.659Z,101535.82
2018-07-06T17:39:59.980Z,101551.10
2018-07-06T17:43:04.288Z,101538.36
2018-07-06T17:46:08.628Z,101545.32
2018-07-06T17:49:12.981Z,101559.34
2018-07-06T17:52:17.364Z,101555.77
2018-07-06T17:55:21.708Z,101556.61
2018-07-06T17:58:26.027Z,101556.98
2018-07-06T18:01:30.452Z,101553.92
2018-07-06T18:04:34.830Z,101562.61
2018-07-06T18:07:39.198Z,101552.88
2018-07-06T18:10:43.549Z,101564.63
2018-07-06T18:13:47.847Z,101557.23
2018-07-06T18:16:52.254Z,101556.30
2018-07-06T18:19:57.388Z,101560.13
2018-07-06T18:23:02.445Z,101572.80
2018-07-06T18:26:06.899Z,101563.06
2018-07-06T18:29:11.371Z,101573.89
2018-07-06T18:32:16.064Z,101567.73
2018-07-06T18:35:20.452Z,101571.58
2018-07-06T18:38:24.882Z,101572.41
2018-07-06T18:41:29.170Z,101572.41
2018-07-06T18:44:33.519Z,101575.05
2018-07-06T18:47:38.010Z,101572.94
2018-07-06T18:50:42.315Z,101576.66
2018-07-06T18:53:46.696Z,101575.15
2018-07-06T18:56:50.963Z,101568.58
2018-07-06T18:59:55.300Z,101562.78
2018-07-06T19:02:59.673Z,101568.48
2018-07-06T19:06:03.989Z,101572.86
2018-07-06T19:09:08.592Z,101570.64
2018-07-06T19:12:12.864Z,101564.97
2018-07-06T19:15:17.194Z,101567.56
2018-07-06T19:18:21.693Z,101572.39
2018-07-06T19:21:26.217Z,101564.16
2018-07-06T19:24:30.656Z,101558.97
2018-07-06T19:27:35.022Z,101559.84
2018-07-06T19:30:39.360Z,101561.73
2018-07-06T19:33:43.722Z,101558.23
2018-07-06T19:36:48.020Z,101563.41
2018-07-06T19:39:52.508Z,101568.11
2018-07-06T19:42:56.889Z,101572.88
2018-07-06T19:46:01.237Z,101579.88
2018-07-06T19:49:05.631Z,101575.09
2018-07-06T19:52:09.989Z,101577.25
2018-07-06T19:55:14.354Z,101588.55
2018-07-06T19:58:18.718Z,101589.33
2018-07-06T20:01:23.052Z,101597.66
2018-07-06T20:04:27.363Z,101604.11
2018-07-06T20:07:31.814Z,101609.34
2018-07-06T20:10:36.138Z,101612.74
2018-07-06T20:13:40.542Z,101614.42
2018-07-06T20:16:44.836Z,101613.05
2018-07-06T20:19:49.172Z,101626.55
2018-07-06T20:22:53.612Z,101618.62
2018-07-06T20:25:58.117Z,101632.55
2018-07-06T20:29:02.463Z,101628.41
2018-07-06T20:32:06.857Z,101627.94
2018-07-06T20:35:11.221Z,101627.94
2018-07-06T20:38:15.631Z,101627.83
2018-07-06T20:41:20.073Z,101629.93
2018-07-06T20:44:24.444Z,101636.03
2018-07-06T20:47:28.782Z,101636.00
2018-07-06T20:50:33.107Z,101632.87
2018-07-06T20:53:37.554Z,101631.95
2018-07-06T20:56:41.825Z,101628.47
2018-07-06T20:59:46.205Z,101627.52
2018-07-06T21:02:50.509Z,101632.70
2018-07-06T21:05:54.825Z,101633.50
2018-07-06T21:08:59.231Z,101639.05
2018-07-06T21:12:03.568Z,101644.59
2018-07-06T21:15:08.017Z,101649.78
2018-07-06T21:18:12.381Z,101648.73
2018-07-06T21:21:16.749Z,101650.44
2018-07-06T21:24:21.068Z,101649.39
2018-07-06T21:27:25.332Z,101647.16
2018-07-06T21:30:29.659Z,101651.03
2018-07-06T21:33:33.974Z,101654.47
2018-07-06T21:36:38.343Z,101657.38
2018-07-06T21:39:42.743Z,101650.70
2018-07-06T21:42:48.073Z,101656.27
2018-07-06T21:45:52.451Z,101662.75
2018-07-06T21:48:56.773Z,101646.89
2018-07-06T21:52:01.155Z,101651.23
2018-07-06T21:55:05.496Z,101649.39
2018-07-06T21:58:09.784Z,101647.22
2018-07-06T22:01:14.177Z,101643.11
2018-07-06T22:04:18.536Z,101651.65
2018-07-06T22:07:22.800Z,101645.89
2018-07-06T22:10:27.362Z,101648.02
2018-07-06T22:13:31.523Z,101650.57
2018-07-06T22:16:35.962Z,101657.05
2018-07-06T22:19:40.226Z,101650.47
2018-07-06T22:22:44.543Z,101655.73
2018-07-06T22:25:48.897Z,101662.69
2018-07-06T22:28:53.378Z,101653.89
2018-07-06T22:31:57.780Z,101650.94
2018-07-06T22:35:02.172Z,101661.71
2018-07-06T22:38:06.284Z,101659.98
2018-07-06T22:41:10.634Z,101658.13
2018-07-06T22:44:14.953Z,101657.64
2018-07-06T22:47:19.239Z,101656.33
2018-07-06T22:50:23.615Z,101656.81
2018-07-06T22:53:27.892Z,101660.85
2018-07-06T22:56:32.229Z,101657.31
2018-07-06T22:59:36.544Z,101652.86
2018-07-06T23:02:40.868Z,101660.16
2018-07-06T23:05:45.243Z,101654.88
2018-07-06T23:08:49.600Z,101650.58
2018-07-06T23:11:53.907Z,101652.28
2018-07-06T23:14:58.215Z,101653.96
2018-07-06T23:18:02.582Z,101653.04
2018-07-06T23:21:07.665Z,101653.04
2018-07-06T23:24:12.036Z,101655.22
2018-07-06T23:27:16.461Z,101657.06
2018-07-06T23:30:20.802Z,101656.63
2018-07-06T23:33:25.117Z,101662.17
2018-07-06T23:36:29.395Z,101666.41
2018-07-06T23:39:33.856Z,101665.58
2018-07-06T23:42:38.649Z,101663.38
2018-07-06T23:45:42.934Z,101662.11
2018-07-06T23:48:47.325Z,101655.55
2018-07-06T23:51:51.643Z,101654.22
2018-07-06T23:54:55.924Z,101653.84
2018-07-06T23:58:00.364Z,101657.34
